createdAt,value
2018-01-23T00:01:42.458Z,4.05
2018-01-23T00:04:08.679Z,4.03
2018-01-23T00:06:34.907Z,4.10
2018-01-23T00:09:01.106Z,4.23
2018-01-23T00:11:27.290Z,4.23
2018-01-23T00:13:53.550Z,3.98
2018-01-23T00:16:19.747Z,3.91
2018-01-23T00:18:45.915Z,3.91
2018-01-23T00:21:12.227Z,4.06
2018-01-23T00:23:38.438Z,4.03
2018-01-23T00:26:04.642Z,3.98
2018-01-23T00:28:30.858Z,4.14
2018-01-23T00:30:57.051Z,4.23
2018-01-23T00:33:23.276Z,4.27
2018-01-23T00:35:49.483Z,4.29
2018-01-23T00:38:15.667Z,4.34
2018-01-23T00:40:41.910Z,4.37
2018-01-23T00:43:08.103Z,4.36
2018-01-23T00:45:34.422Z,4.29
2018-01-23T00:48:00.633Z,4.20
2018-01-23T00:50:26.834Z,4.24
2018-01-23T00:52:53.092Z,4.26
2018-01-23T00:55:19.362Z,4.14
2018-01-23T00:57:45.528Z,4.27
2018-01-23T01:00:11.790Z,4.20
2018-01-23T01:02:38.045Z,4.20
2018-01-23T01:05:04.218Z,4.23
2018-01-23T01:07:30.438Z,4.23
2018-01-23T01:09:56.718Z,4.17
2018-01-23T01:12:22.923Z,4.17
2018-01-23T01:14:49.111Z,4.10
2018-01-23T01:17:15.338Z,3.91
2018-01-23T01:19:41.596Z,4.06
2018-01-23T01:22:07.802Z,4.04
2018-01-23T01:24:34.019Z,3.95
2018-01-23T01:27:00.209Z,3.95
2018-01-23T01:29:26.479Z,3.98
2018-01-23T01:31:52.810Z,4.04
2018-01-23T01:34:18.983Z,3.90
2018-01-23T01:36:45.175Z,3.91
2018-01-23T01:39:11.430Z,4.06
2018-01-23T01:41:37.871Z,4.08
2018-01-23T01:44:04.030Z,4.02
2018-01-23T01:46:30.303Z,4.11
2018-01-23T01:48:56.512Z,4.13
2018-01-23T01:51:22.768Z,4.13
2018-01-23T01:53:48.998Z,3.99
2018-01-23T01:56:15.230Z,4.08
2018-01-23T01:58:41.490Z,4.21
2018-01-23T02:01:07.696Z,4.26
2018-01-23T02:03:33.934Z,4.32
2018-01-23T02:06:00.179Z,4.35
2018-01-23T02:08:26.399Z,4.36
2018-01-23T02:10:52.618Z,4.38
2018-01-23T02:13:18.870Z,4.33
2018-01-23T02:15:45.078Z,4.01
2018-01-23T02:18:11.327Z,3.85
2018-01-23T02:20:37.531Z,4.06
2018-01-23T02:23:03.713Z,3.98
2018-01-23T02:25:29.940Z,3.84
2018-01-23T02:27:56.131Z,3.97
2018-01-23T02:30:22.346Z,3.80
2018-01-23T02:32:48.575Z,3.72
2018-01-23T02:35:14.822Z,3.66
2018-01-23T02:37:41.007Z,3.80
2018-01-23T02:40:07.283Z,3.81
2018-01-23T02:42:33.548Z,3.74
2018-01-23T02:44:59.767Z,3.70
2018-01-23T02:47:26.004Z,3.66
2018-01-23T02:49:52.299Z,3.81
2018-01-23T02:52:18.587Z,3.73
2018-01-23T02:54:44.793Z,3.70
2018-01-23T02:57:11.044Z,3.83
2018-01-23T02:59:37.258Z,3.81
2018-01-23T03:02:03.510Z,3.84
2018-01-23T03:04:29.715Z,3.81
2018-01-23T03:06:55.950Z,3.65
2018-01-23T03:09:22.178Z,3.93
2018-01-23T03:11:48.402Z,3.93
2018-01-23T03:14:14.651Z,3.89
2018-01-23T03:16:40.823Z,3.76
2018-01-23T03:19:07.103Z,3.78
2018-01-23T03:21:33.348Z,3.88
2018-01-23T03:23:59.575Z,3.85
2018-01-23T03:26:25.839Z,3.88
2018-01-23T03:28:52.047Z,3.91
2018-01-23T03:31:18.251Z,3.87
2018-01-23T03:33:44.466Z,3.86
2018-01-23T03:36:10.722Z,3.88
2018-01-23T03:38:36.934Z,3.90
2018-01-23T03:41:03.199Z,3.91
2018-01-23T03:43:29.391Z,3.91
2018-01-23T03:45:55.566Z,3.94
2018-01-23T03:48:21.790Z,4.02
2018-01-23T03:50:47.971Z,4.00
2018-01-23T03:53:14.245Z,4.04
2018-01-23T03:55:40.685Z,4.00
2018-01-23T03:58:06.934Z,3.94
2018-01-23T04:00:33.183Z,3.96
2018-01-23T04:02:59.368Z,3.74
2018-01-23T04:05:25.649Z,3.86
2018-01-23T04:07:51.844Z,4.05
2018-01-23T04:10:18.031Z,4.13
2018-01-23T04:12:44.334Z,4.15
2018-01-23T04:15:10.667Z,4.15
2018-01-23T04:17:36.961Z,4.19
2018-01-23T04:20:03.127Z,4.10
2018-01-23T04:22:29.387Z,4.16
2018-01-23T04:24:55.602Z,4.10
2018-01-23T04:27:21.822Z,4.06
2018-01-23T04:29:48.071Z,3.99
2018-01-23T04:32:14.235Z,3.99
2018-01-23T04:34:40.419Z,3.82
2018-01-23T04:37:06.718Z,3.58
2018-01-23T04:39:32.947Z,3.75
2018-01-23T04:41:59.244Z,3.67
2018-01-23T04:44:25.550Z,3.71
2018-01-23T04:46:51.780Z,3.81
2018-01-23T04:49:17.994Z,3.85
2018-01-23T04:51:44.235Z,3.87
2018-01-23T04:54:10.542Z,3.86
2018-01-23T04:56:36.742Z,3.86
2018-01-23T04:59:02.922Z,3.84
2018-01-23T05:01:29.192Z,3.82
2018-01-23T05:03:55.430Z,3.67
2018-01-23T05:06:21.650Z,3.58
2018-01-23T05:08:47.930Z,3.66
2018-01-23T05:11:14.089Z,3.68
2018-01-23T05:13:40.291Z,3.62
2018-01-23T05:16:06.452Z,3.50
2018-01-23T05:18:32.629Z,3.51
2018-01-23T05:20:58.863Z,3.46
2018-01-23T05:23:25.088Z,3.52
2018-01-23T05:25:51.311Z,3.58
2018-01-23T05:28:17.562Z,3.63
2018-01-23T05:30:43.762Z,3.69
2018-01-23T05:33:09.990Z,3.42
2018-01-23T05:35:36.255Z,3.43
2018-01-23T05:38:02.431Z,3.47
2018-01-23T05:40:28.731Z,3.50
2018-01-23T05:42:54.966Z,3.32
2018-01-23T05:45:21.143Z,3.33
2018-01-23T05:47:47.367Z,3.37
2018-01-23T05:50:13.698Z,3.31
2018-01-23T05:52:39.910Z,3.20
2018-01-23T05:55:06.201Z,3.39
2018-01-23T05:57:32.403Z,3.36
2018-01-23T05:59:58.658Z,3.33
2018-01-23T06:02:24.851Z,3.22
2018-01-23T06:04:51.163Z,3.25
2018-01-23T06:07:17.416Z,3.32
2018-01-23T06:09:43.607Z,3.41
2018-01-23T06:12:10.067Z,3.48
2018-01-23T06:14:36.254Z,3.49
2018-01-23T06:17:02.566Z,3.50
2018-01-23T06:19:28.882Z,3.48
2018-01-23T06:21:55.136Z,3.46
2018-01-23T06:24:21.422Z,3.48
2018-01-23T06:26:47.662Z,3.51
2018-01-23T06:29:13.846Z,3.46
2018-01-23T06:31:40.039Z,3.48
2018-01-23T06:34:06.310Z,3.50
2018-01-23T06:36:32.495Z,3.51
2018-01-23T06:38:58.698Z,3.41
2018-01-23T06:41:25.007Z,3.53
2018-01-23T06:43:51.223Z,3.57
2018-01-23T06:46:17.366Z,3.56
2018-01-23T06:48:43.598Z,3.60
2018-01-23T06:51:09.799Z,3.59
2018-01-23T06:53:36.040Z,3.46
2018-01-23T06:56:02.341Z,3.33
2018-01-23T06:58:28.587Z,3.43
2018-01-23T07:00:54.818Z,3.41
2018-01-23T07:03:21.234Z,3.27
2018-01-23T07:05:47.391Z,3.42
2018-01-23T07:08:13.587Z,3.43
2018-01-23T07:10:39.794Z,3.49
2018-01-23T07:13:06.074Z,3.57
2018-01-23T07:15:32.371Z,3.64
2018-01-23T07:17:58.603Z,3.62
2018-01-23T07:20:24.849Z,3.73
2018-01-23T07:22:51.072Z,3.76
2018-01-23T07:25:17.327Z,3.71
2018-01-23T07:27:43.575Z,3.65
2018-01-23T07:30:10.108Z,3.59
2018-01-23T07:32:36.391Z,3.74
2018-01-23T07:35:02.694Z,3.73
2018-01-23T07:37:28.933Z,3.77
2018-01-23T07:39:55.330Z,3.76
2018-01-23T07:42:21.555Z,3.83
2018-01-23T07:44:47.738Z,3.87
2018-01-23T07:47:13.999Z,3.93
2018-01-23T07:49:40.190Z,3.78
2018-01-23T07:52:06.426Z,3.78
2018-01-23T07:54:32.743Z,3.90
2018-01-23T07:56:58.947Z,4.08
2018-01-23T07:59:25.114Z,4.16
2018-01-23T08:01:51.442Z,4.24
2018-01-23T08:04:17.690Z,4.12
2018-01-23T08:06:43.929Z,4.35
2018-01-23T08:09:10.208Z,4.45
2018-01-23T08:11:36.352Z,4.65
2018-01-23T08:14:02.570Z,4.80
2018-01-23T08:16:28.910Z,4.91
2018-01-23T08:18:55.090Z,4.76
2018-01-23T08:21:21.361Z,5.10
2018-01-23T08:23:47.623Z,5.24
2018-01-23T08:26:13.794Z,5.33
2018-01-23T08:28:39.954Z,5.45
2018-01-23T08:31:06.187Z,5.50
2018-01-23T08:33:32.415Z,5.30
2018-01-23T08:35:58.791Z,5.46
2018-01-23T08:38:25.071Z,5.59
2018-01-23T08:40:51.302Z,5.50
2018-01-23T08:43:17.538Z,5.63
2018-01-23T08:45:43.735Z,5.69
2018-01-23T08:48:09.932Z,5.76
2018-01-23T08:50:36.114Z,5.85
2018-01-23T08:53:02.410Z,5.87
2018-01-23T08:55:28.701Z,5.88
2018-01-23T08:57:54.903Z,5.89
2018-01-23T09:00:21.131Z,5.81
2018-01-23T09:02:47.375Z,5.92
2018-01-23T09:05:13.575Z,6.01
2018-01-23T09:07:39.763Z,5.80
2018-01-23T09:10:06.031Z,5.74
2018-01-23T09:12:32.229Z,5.96
2018-01-23T09:14:58.459Z,6.02
2018-01-23T09:17:24.662Z,5.48
2018-01-23T09:19:50.911Z,5.79
2018-01-23T09:22:17.234Z,5.82
2018-01-23T09:24:43.420Z,6.08
2018-01-23T09:27:09.675Z,5.97
2018-01-23T09:29:35.912Z,5.99
2018-01-23T09:32:02.114Z,6.12
2018-01-23T09:34:28.285Z,6.03
2018-01-23T09:36:54.514Z,5.95
2018-01-23T09:39:20.911Z,6.00
2018-01-23T09:41:47.189Z,6.22
2018-01-23T09:44:13.446Z,6.25
2018-01-23T09:46:39.618Z,6.17
2018-01-23T09:49:05.793Z,5.99
2018-01-23T09:51:31.999Z,5.95
2018-01-23T09:53:58.179Z,5.91
2018-01-23T09:56:24.436Z,5.96
2018-01-23T09:58:50.667Z,6.03
2018-01-23T10:01:16.927Z,5.81
2018-01-23T10:03:43.239Z,5.58
2018-01-23T10:06:09.447Z,5.90
2018-01-23T10:08:35.856Z,6.02
2018-01-23T10:11:02.188Z,5.96
2018-01-23T10:13:28.368Z,6.10
2018-01-23T10:15:54.694Z,6.16
2018-01-23T10:18:20.950Z,6.31
2018-01-23T10:20:47.207Z,6.32
2018-01-23T10:23:13.459Z,6.28
2018-01-23T10:25:39.748Z,6.51
2018-01-23T10:28:06.001Z,6.65
2018-01-23T10:30:32.305Z,6.77
2018-01-23T10:32:58.526Z,6.75
2018-01-23T10:35:24.759Z,6.77
2018-01-23T10:37:50.954Z,6.88
2018-01-23T10:40:17.151Z,6.76
2018-01-23T10:42:43.342Z,6.68
2018-01-23T10:45:09.511Z,6.37
2018-01-23T10:47:35.722Z,6.00
2018-01-23T10:50:01.935Z,5.98
2018-01-23T10:52:28.183Z,6.08
2018-01-23T10:54:54.411Z,6.27
2018-01-23T10:57:20.615Z,6.20
2018-01-23T10:59:46.817Z,6.19
2018-01-23T11:02:13.011Z,6.39
2018-01-23T11:04:39.210Z,6.63
2018-01-23T11:07:05.479Z,6.74
2018-01-23T11:09:31.720Z,6.93
2018-01-23T11:11:57.927Z,7.14
2018-01-23T11:14:24.122Z,7.28
2018-01-23T11:16:50.351Z,7.00
2018-01-23T11:19:16.583Z,7.01
2018-01-23T11:21:42.832Z,7.05
2018-01-23T11:24:09.063Z,6.77
2018-01-23T11:26:35.274Z,6.74
2018-01-23T11:29:01.463Z,6.64
2018-01-23T11:31:27.758Z,6.81
2018-01-23T11:33:53.954Z,6.86
2018-01-23T11:36:20.159Z,6.69
2018-01-23T11:38:46.563Z,6.72
2018-01-23T11:41:13.143Z,6.97
2018-01-23T11:43:39.487Z,7.15
2018-01-23T11:46:05.858Z,7.29
2018-01-23T11:48:32.035Z,7.40
2018-01-23T11:50:58.251Z,7.34
2018-01-23T11:53:24.465Z,7.47
2018-01-23T11:55:50.742Z,7.56
2018-01-23T11:58:16.990Z,7.50
2018-01-23T12:00:43.186Z,7.03
2018-01-23T12:03:09.478Z,6.98
2018-01-23T12:05:35.767Z,7.14
2018-01-23T12:08:01.999Z,7.08
2018-01-23T12:10:28.170Z,7.00
2018-01-23T12:12:54.954Z,7.02
2018-01-23T12:15:21.162Z,6.93
2018-01-23T12:17:47.430Z,6.97
2018-01-23T12:20:13.724Z,6.93
2018-01-23T12:22:40.163Z,7.11
2018-01-23T12:25:06.378Z,7.23
2018-01-23T12:27:32.656Z,7.26
2018-01-23T12:29:58.873Z,7.20
2018-01-23T12:32:25.105Z,7.09
2018-01-23T12:34:51.356Z,6.99
2018-01-23T12:37:17.607Z,7.10
2018-01-23T12:39:44.043Z,7.08
2018-01-23T12:42:10.271Z,7.03
2018-01-23T12:44:36.523Z,7.04
2018-01-23T12:47:02.919Z,7.18
2018-01-23T12:49:29.176Z,6.95
2018-01-23T12:51:55.414Z,7.05
2018-01-23T12:54:21.675Z,7.06
2018-01-23T12:56:47.885Z,6.99
2018-01-23T12:59:14.110Z,6.61
2018-01-23T13:01:40.468Z,6.66
2018-01-23T13:04:06.951Z,6.83
2018-01-23T13:06:33.263Z,6.78
2018-01-23T13:08:59.506Z,6.85
2018-01-23T13:11:25.716Z,6.65
2018-01-23T13:13:52.003Z,6.83
2018-01-23T13:16:18.295Z,6.98
2018-01-23T13:18:44.679Z,6.87
2018-01-23T13:21:11.241Z,6.82
2018-01-23T13:23:37.466Z,6.76
2018-01-23T13:26:03.683Z,6.71
2018-01-23T13:28:30.092Z,6.68
2018-01-23T13:30:56.298Z,6.84
2018-01-23T13:33:22.514Z,6.68
2018-01-23T13:35:48.955Z,6.91
2018-01-23T13:38:15.204Z,6.79
2018-01-23T13:40:41.367Z,6.67
2018-01-23T13:43:07.585Z,6.75
2018-01-23T13:45:33.787Z,6.83
2018-01-23T13:47:59.975Z,6.91
2018-01-23T13:50:26.195Z,6.59
2018-01-23T13:52:52.644Z,6.74
2018-01-23T13:55:18.843Z,6.70
2018-01-23T13:57:45.102Z,6.87
2018-01-23T14:00:11.283Z,6.94
2018-01-23T14:02:37.454Z,6.96
2018-01-23T14:05:03.711Z,7.06
2018-01-23T14:07:29.911Z,6.79
2018-01-23T14:09:56.136Z,6.95
2018-01-23T14:12:22.339Z,7.05
2018-01-23T14:14:48.648Z,7.06
2018-01-23T14:17:14.837Z,7.10
2018-01-23T14:19:41.071Z,7.13
2018-01-23T14:22:07.331Z,7.09
2018-01-23T14:24:33.555Z,7.09
2018-01-23T14:26:59.862Z,7.06
2018-01-23T14:29:26.047Z,7.07
2018-01-23T14:31:52.410Z,7.06
2018-01-23T14:34:18.682Z,6.98
2018-01-23T14:36:44.879Z,7.06
2018-01-23T14:39:11.096Z,7.02
2018-01-23T14:41:37.331Z,6.94
2018-01-23T14:44:03.487Z,7.03
2018-01-23T14:46:29.799Z,6.94
2018-01-23T14:48:56.042Z,6.95
2018-01-23T14:51:22.222Z,6.77
2018-01-23T14:53:48.474Z,6.77
2018-01-23T14:56:14.710Z,6.72
2018-01-23T14:58:40.899Z,6.80
2018-01-23T15:01:07.098Z,6.85
2018-01-23T15:03:33.452Z,6.87
2018-01-23T15:05:59.723Z,6.84
2018-01-23T15:08:25.903Z,6.83
2018-01-23T15:10:52.110Z,6.80
2018-01-23T15:13:18.355Z,6.66
2018-01-23T15:15:44.562Z,6.74
2018-01-23T15:18:10.808Z,6.75
2018-01-23T15:20:37.279Z,6.76
2018-01-23T15:23:03.547Z,6.74
2018-01-23T15:25:29.859Z,6.76
2018-01-23T15:27:56.114Z,6.78
2018-01-23T15:30:22.331Z,6.75
2018-01-23T15:32:48.572Z,6.79
2018-01-23T15:35:14.882Z,6.75
2018-01-23T15:37:41.080Z,6.73
2018-01-23T15:40:07.278Z,6.74
2018-01-23T15:42:33.520Z,6.71
2018-01-23T15:44:59.720Z,6.68
2018-01-23T15:47:25.902Z,6.67
2018-01-23T15:49:52.159Z,6.48
2018-01-23T15:52:18.371Z,6.35
2018-01-23T15:54:44.579Z,6.33
2018-01-23T15:57:10.863Z,6.10
2018-01-23T15:59:37.062Z,6.29
2018-01-23T16:02:03.286Z,6.36
2018-01-23T16:04:29.482Z,6.37
2018-01-23T16:06:55.747Z,6.16
2018-01-23T16:09:21.955Z,6.19
2018-01-23T16:11:48.207Z,6.29
2018-01-23T16:14:14.438Z,6.15
2018-01-23T16:16:40.655Z,6.19
2018-01-23T16:19:06.862Z,6.23
2018-01-23T16:21:33.068Z,6.22
2018-01-23T16:23:59.251Z,6.17
2018-01-23T16:26:25.487Z,5.77
2018-01-23T16:28:51.718Z,6.03
2018-01-23T16:31:17.898Z,6.06
2018-01-23T16:33:44.100Z,5.88
2018-01-23T16:36:10.324Z,6.01
2018-01-23T16:38:36.538Z,6.12
2018-01-23T16:41:02.759Z,6.18
2018-01-23T16:43:28.986Z,6.08
2018-01-23T16:45:55.175Z,6.18
2018-01-23T16:48:21.393Z,6.23
2018-01-23T16:50:47.579Z,6.18
2018-01-23T16:53:13.834Z,6.18
2018-01-23T16:55:40.039Z,6.22
2018-01-23T16:58:06.372Z,6.18
2018-01-23T17:00:32.586Z,6.15
2018-01-23T17:02:58.783Z,6.18
2018-01-23T17:05:24.977Z,6.16
2018-01-23T17:07:51.170Z,6.14
2018-01-23T17:10:17.390Z,6.07
2018-01-23T17:12:43.628Z,6.10
2018-01-23T17:15:10.628Z,5.94
2018-01-23T17:17:38.192Z,5.95
2018-01-23T17:20:04.523Z,5.96
2018-01-23T17:22:31.670Z,5.99
2018-01-23T17:24:57.844Z,5.86
2018-01-23T17:27:24.070Z,5.86
2018-01-23T17:29:50.269Z,5.80
2018-01-23T17:32:16.507Z,5.80
2018-01-23T17:34:42.746Z,5.75
2018-01-23T17:37:08.916Z,5.81
2018-01-23T17:39:35.146Z,5.78
2018-01-23T17:42:01.362Z,5.63
2018-01-23T17:44:27.556Z,5.37
2018-01-23T17:46:53.763Z,5.37
2018-01-23T17:49:19.993Z,5.53
2018-01-23T17:51:46.230Z,5.31
2018-01-23T17:54:12.431Z,5.66
2018-01-23T17:56:38.615Z,5.66
2018-01-23T17:59:04.860Z,5.44
2018-01-23T18:01:31.095Z,5.57
2018-01-23T18:03:57.396Z,5.36
2018-01-23T18:06:23.595Z,5.56
2018-01-23T18:08:49.885Z,5.37
2018-01-23T18:11:16.154Z,5.22
2018-01-23T18:13:42.411Z,5.28
2018-01-23T18:16:08.626Z,5.26
2018-01-23T18:18:34.824Z,5.34
2018-01-23T18:21:01.055Z,5.36
2018-01-23T18:23:27.300Z,5.41
2018-01-23T18:25:53.621Z,5.05
2018-01-23T18:28:19.833Z,5.12
2018-01-23T18:30:46.085Z,5.08
2018-01-23T18:33:12.300Z,5.16
2018-01-23T18:35:38.500Z,4.90
2018-01-23T18:38:04.748Z,5.09
2018-01-23T18:40:30.944Z,5.19
2018-01-23T18:42:57.113Z,5.25
2018-01-23T18:45:23.409Z,5.30
2018-01-23T18:47:49.654Z,5.04
2018-01-23T18:50:15.892Z,5.17
2018-01-23T18:52:42.167Z,5.12
2018-01-23T18:55:08.371Z,5.14
2018-01-23T18:57:34.620Z,5.15
2018-01-23T19:00:00.879Z,4.92
2018-01-23T19:02:27.116Z,5.18
2018-01-23T19:04:53.331Z,5.14
2018-01-23T19:07:19.568Z,5.23
2018-01-23T19:09:45.938Z,5.24
2018-01-23T19:12:12.179Z,5.20
2018-01-23T19:14:38.668Z,4.97
2018-01-23T19:17:04.888Z,4.81
2018-01-23T19:19:31.136Z,4.81
2018-01-23T19:21:57.367Z,5.00
2018-01-23T19:24:23.624Z,4.97
2018-01-23T19:26:49.838Z,4.68
2018-01-23T19:29:16.072Z,4.76
2018-01-23T19:31:42.335Z,4.56
2018-01-23T19:34:08.555Z,4.83
2018-01-23T19:36:34.767Z,4.56
2018-01-23T19:39:00.967Z,4.84
2018-01-23T19:41:27.235Z,4.89
2018-01-23T19:43:53.453Z,4.84
2018-01-23T19:46:19.687Z,4.85
2018-01-23T19:48:45.960Z,4.94
2018-01-23T19:51:12.138Z,4.98
2018-01-23T19:53:38.368Z,5.05
2018-01-23T19:56:04.595Z,4.98
2018-01-23T19:58:30.746Z,4.85
2018-01-23T20:00:57.005Z,5.01
2018-01-23T20:03:23.204Z,5.07
2018-01-23T20:05:49.395Z,5.19
2018-01-23T20:08:15.642Z,5.06
2018-01-23T20:10:41.839Z,4.83
2018-01-23T20:13:08.040Z,4.93
2018-01-23T20:15:34.294Z,5.00
2018-01-23T20:18:01.499Z,4.99
2018-01-23T20:20:27.827Z,4.73
2018-01-23T20:22:54.408Z,4.70
2018-01-23T20:25:20.930Z,4.84
2018-01-23T20:27:47.119Z,4.77
2018-01-23T20:30:13.975Z,4.76
2018-01-23T20:32:40.275Z,4.92
2018-01-23T20:35:06.475Z,4.82
2018-01-23T20:37:32.698Z,4.93
2018-01-23T20:39:58.953Z,4.83
2018-01-23T20:42:25.118Z,4.66
2018-01-23T20:44:51.786Z,4.80
2018-01-23T20:47:18.128Z,4.74
2018-01-23T20:49:44.816Z,4.69
2018-01-23T20:52:12.120Z,4.79
2018-01-23T20:54:38.860Z,4.71
2018-01-23T20:57:05.728Z,4.64
2018-01-23T20:59:32.957Z,4.75
2018-01-23T21:01:59.653Z,4.59
2018-01-23T21:04:26.323Z,4.66
2018-01-23T21:06:52.974Z,4.69
2018-01-23T21:09:19.675Z,4.67
2018-01-23T21:11:46.437Z,4.68
2018-01-23T21:14:12.898Z,4.47
2018-01-23T21:16:40.312Z,4.63
2018-01-23T21:19:07.884Z,4.54
2018-01-23T21:21:35.606Z,4.55
2018-01-23T21:24:04.080Z,4.55
2018-01-23T21:26:30.420Z,4.71
2018-01-23T21:28:56.595Z,4.74
2018-01-23T21:31:22.967Z,4.46
2018-01-23T21:33:49.140Z,4.46
2018-01-23T21:36:15.326Z,4.47
2018-01-23T21:38:41.574Z,4.54
2018-01-23T21:41:07.812Z,4.49
2018-01-23T21:43:34.035Z,4.44
2018-01-23T21:46:00.291Z,4.52
2018-01-23T21:48:26.462Z,4.37
2018-01-23T21:50:52.742Z,4.37
2018-01-23T21:53:19.047Z,4.44
2018-01-23T21:55:45.222Z,4.17
2018-01-23T21:58:11.483Z,4.54
2018-01-23T22:00:37.767Z,4.41
2018-01-23T22:03:03.989Z,4.44
2018-01-23T22:05:30.215Z,4.39
2018-01-23T22:07:56.453Z,4.40
2018-01-23T22:10:22.723Z,4.49
2018-01-23T22:12:49.083Z,4.45
2018-01-23T22:15:15.266Z,4.36
2018-01-23T22:17:41.539Z,4.29
2018-01-23T22:20:07.690Z,4.23
2018-01-23T22:22:33.925Z,3.86
2018-01-23T22:25:00.166Z,4.12
2018-01-23T22:27:26.347Z,4.23
2018-01-23T22:29:52.622Z,4.30
2018-01-23T22:32:18.790Z,3.83
2018-01-23T22:34:44.975Z,3.95
2018-01-23T22:37:11.239Z,3.87
2018-01-23T22:39:37.566Z,3.77
2018-01-23T22:42:03.717Z,3.82
2018-01-23T22:44:29.936Z,3.90
2018-01-23T22:46:56.130Z,3.95
2018-01-23T22:49:22.438Z,3.56
2018-01-23T22:51:48.707Z,3.74
2018-01-23T22:54:14.863Z,3.76
2018-01-23T22:56:41.095Z,4.02
2018-01-23T22:59:07.298Z,3.89
2018-01-23T23:01:33.573Z,3.90
2018-01-23T23:03:59.778Z,3.93
2018-01-23T23:06:25.983Z,3.76
2018-01-23T23:08:52.273Z,3.58
2018-01-23T23:11:18.551Z,3.64
2018-01-23T23:13:44.875Z,3.91
2018-01-23T23:16:11.076Z,3.87
2018-01-23T23:18:37.275Z,3.65
2018-01-23T23:21:03.539Z,4.08
2018-01-23T23:23:29.806Z,3.74
2018-01-23T23:25:56.011Z,3.78
2018-01-23T23:28:22.204Z,3.64
2018-01-23T23:30:48.471Z,3.66
2018-01-23T23:33:14.703Z,3.80
2018-01-23T23:35:41.015Z,3.82
2018-01-23T23:38:07.226Z,3.88
2018-01-23T23:40:33.458Z,3.60
2018-01-23T23:42:59.620Z,3.86
2018-01-23T23:45:25.891Z,3.91
2018-01-23T23:47:52.158Z,3.88
2018-01-23T23:50:18.428Z,3.84
2018-01-23T23:52:44.677Z,4.04
2018-01-23T23:55:10.931Z,3.09
2018-01-23T23:57:37.162Z,3.20
